Terminal Aerodrome Forecast
Issued by NWS

Current Version | Previous Version | Graphics & Text | Print | Product List | Glossary On
Versions: 1 2 3 4 5 6 7 8 9 10 11 12 13 14 15 16 17 18
000
FTUS41 KRNK 150526
TAFLWB
TAF
KLWB 150526Z 1506/1606 VRB03KT P6SM FEW090
     FM150800 VRB03KT P6SM BKN090
      TEMPO 1508/1512 2SM BR BKN030
     FM151200 00000KT P6SM BKN030
     FM151800 15004KT P6SM SCT200
     FM160300 24004KT P6SM BKN050=

USA.gov is the U.S. government's official web portal to all federal, state and local government web resources and services.